Time;durP1;ratioP1;P1;durP2;ratioP2;P2;SDS_P1;SDS_P2;PMS_P1;PMS_P2;Temp;Humidity;BMP_temperature;BMP_pressure;BME280_temperature;BME280_humidity;BME280_pressure;Samples;Min_cycle;Max_cycle;Signal;HPM_P1;HPM_P2
2023/11/25 00:02:12;;;;;;;50.63;26.00;;;;;;;9.47;98.82;97537.84;5132938;27;20019;-26
2023/11/25 00:04:38;;;;;;;47.83;25.27;;;;;;;9.35;100.00;97527.38;5132733;27;20023;-26
2023/11/25 00:07:04;;;;;;;47.15;25.77;;;;;;;9.16;99.93;97511.00;5132700;27;20103;-26
2023/11/25 00:09:29;;;;;;;44.38;24.92;;;;;;;9.23;98.95;97500.16;5132838;27;20114;-26
2023/11/25 00:11:55;;;;;;;49.00;25.73;;;;;;;9.18;99.55;97522.16;5132456;27;20114;-26
2023/11/25 00:14:20;;;;;;;49.30;26.45;;;;;;;9.04;100.00;97503.13;5132537;27;20095;-27
2023/11/25 00:16:45;;;;;;;46.50;25.15;;;;;;;9.37;99.43;97496.88;5132509;27;20102;-25
2023/11/25 00:19:11;;;;;;;45.67;24.38;;;;;;;9.07;100.00;97496.56;5132675;27;20022;-26
2023/11/25 00:21:36;;;;;;;48.45;26.02;;;;;;;9.24;98.72;97497.28;5132444;27;20011;-26
2023/11/25 00:24:02;;;;;;;47.08;24.27;;;;;;;9.13;99.63;97490.25;5132400;27;20532;-26
2023/11/25 00:26:28;;;;;;;43.95;23.90;;;;;;;8.96;99.54;97501.72;5132192;27;20176;-26
2023/11/25 00:28:53;;;;;;;44.22;23.20;;;;;;;8.76;99.67;97497.00;5132278;27;20050;-26
2023/11/25 00:31:19;;;;;;;47.00;24.42;;;;;;;8.79;100.00;97504.44;5132231;27;20060;-26
2023/11/25 00:33:45;;;;;;;48.53;24.02;;;;;;;8.75;99.88;97499.88;5132170;27;20458;-26
2023/11/25 00:36:11;;;;;;;43.50;24.55;;;;;;;8.77;100.00;97503.88;5132479;27;20027;-26
2023/11/25 00:38:37;;;;;;;47.58;25.30;;;;;;;8.85;100.00;97489.38;5132761;27;20107;-25
2023/11/25 00:41:05;;;;;;;46.88;25.25;;;;;;;8.92;99.72;97462.69;5132332;27;20030;-25
2023/11/25 00:43:31;;;;;;;46.72;24.13;;;;;;;8.76;99.18;97451.13;5132263;27;20090;-25
2023/11/25 00:45:57;;;;;;;52.67;25.65;;;;;;;9.38;99.73;97452.53;5132659;27;20092;-26
2023/11/25 00:48:23;;;;;;;50.42;25.80;;;;;;;9.37;97.34;97427.06;5132322;27;20027;-26
2023/11/25 00:50:49;;;;;;;46.78;25.02;;;;;;;9.17;97.56;97422.34;5132383;27;20467;-26
2023/11/25 00:53:15;;;;;;;43.08;24.90;;;;;;;9.02;98.73;97423.00;5132477;27;20050;-25
2023/11/25 00:55:40;;;;;;;50.13;24.42;;;;;;;9.16;99.74;97410.94;5131889;27;20131;-25
2023/11/25 00:58:06;;;;;;;46.83;24.50;;;;;;;8.93;100.00;97411.22;5132021;27;20079;-25
2023/11/25 01:00:31;;;;;;;47.25;24.65;;;;;;;8.91;100.00;97408.84;5131696;27;20027;-25
2023/11/25 01:02:57;;;;;;;47.60;24.65;;;;;;;8.77;100.00;97434.13;5132769;27;20077;-27
2023/11/25 01:05:23;;;;;;;55.22;25.48;;;;;;;8.91;100.00;97427.41;5131988;27;20023;-26
2023/11/25 01:07:49;;;;;;;51.80;26.30;;;;;;;8.74;99.56;97418.75;5132302;27;20034;-26
2023/11/25 01:10:14;;;;;;;48.95;26.02;;;;;;;8.69;100.00;97414.16;5132328;27;20436;-26
2023/11/25 01:12:40;;;;;;;48.15;24.63;;;;;;;8.89;100.00;97408.31;5113773;27;20033;-26
2023/11/25 01:15:07;;;;;;;49.20;25.33;;;;;;;8.74;99.66;97418.75;5132419;27;20068;-27
2023/11/25 01:17:33;;;;;;;45.33;23.63;;;;;;;8.69;99.12;97408.06;5131867;27;20038;-25
2023/11/25 01:19:58;;;;;;;45.97;24.45;;;;;;;8.49;100.00;97406.78;5131742;27;20457;-26
2023/11/25 01:22:25;;;;;;;45.58;24.85;;;;;;;8.80;100.00;97421.19;5132112;28;20055;-26
2023/11/25 01:24:51;;;;;;;45.33;23.77;;;;;;;8.64;99.63;97397.41;5131814;28;20031;-25
2023/11/25 01:27:17;;;;;;;45.67;23.33;;;;;;;8.64;99.77;97398.19;5131899;28;20102;-26
2023/11/25 01:29:42;;;;;;;42.80;23.52;;;;;;;8.48;100.00;97383.97;5131930;28;20168;-26
2023/11/25 01:32:09;;;;;;;49.00;24.85;;;;;;;8.59;100.00;97359.19;5131699;28;20035;-26
2023/11/25 01:34:35;;;;;;;48.70;24.90;;;;;;;8.57;100.00;97353.31;5131150;27;20023;-26
2023/11/25 01:37:00;;;;;;;46.05;24.45;;;;;;;8.49;100.00;97350.31;5130861;28;20118;-26
2023/11/25 01:39:25;;;;;;;46.80;23.83;;;;;;;8.57;100.00;97337.41;5131156;28;20098;-26
2023/11/25 01:41:51;;;;;;;46.10;24.58;;;;;;;8.63;100.00;97337.47;5131434;28;20434;-26
2023/11/25 01:44:17;;;;;;;50.45;25.98;;;;;;;8.85;100.00;97318.84;5131255;28;20015;-26
2023/11/25 01:46:43;;;;;;;47.38;23.85;;;;;;;8.75;99.92;97319.56;5130918;27;20094;-25
2023/11/25 01:49:14;;;;;;;47.22;24.25;;;;;;;8.78;99.50;97319.06;5131180;28;20015;-26
2023/11/25 01:51:43;;;;;;;50.05;24.88;;;;;;;8.71;99.34;97313.16;5131663;28;20099;-26
2023/11/25 01:54:08;;;;;;;54.28;27.02;;;;;;;8.78;100.00;97308.47;5131644;28;20511;-26
2023/11/25 01:56:34;;;;;;;45.47;24.77;;;;;;;8.96;99.39;97299.31;5112920;28;20069;-26
2023/11/25 01:59:04;;;;;;;48.08;24.17;;;;;;;8.80;99.04;97279.84;5131330;28;20599;-26
2023/11/25 02:01:29;;;;;;;50.28;25.45;;;;;;;8.85;100.00;97290.47;5131394;28;20106;-26
2023/11/25 02:03:58;;;;;;;50.40;25.55;;;;;;;8.66;100.00;97302.50;5131657;28;20062;-26
2023/11/25 02:06:23;;;;;;;50.22;25.75;;;;;;;8.52;100.00;97275.59;5130979;28;20019;-25
2023/11/25 02:08:50;;;;;;;54.03;26.42;;;;;;;8.66;100.00;97287.38;5131503;28;20026;-25
2023/11/25 02:11:16;;;;;;;49.63;25.02;;;;;;;8.60;100.00;97301.66;5131326;28;20019;-26
2023/11/25 02:13:41;;;;;;;51.20;25.08;;;;;;;8.65;100.00;97280.50;5134611;27;20114;-25
2023/11/25 02:16:10;;;;;;;50.80;25.98;;;;;;;8.57;99.34;97276.44;5134926;27;20027;-25
2023/11/25 02:18:37;;;;;;;54.15;26.42;;;;;;;8.55;100.00;97265.28;5134996;27;20478;-27
2023/11/25 02:21:02;;;;;;;50.80;26.42;;;;;;;8.64;100.00;97270.13;5135368;27;20485;-26
2023/11/25 02:23:28;;;;;;;55.10;27.27;;;;;;;8.67;100.00;97277.59;5135271;27;20031;-26
2023/11/25 02:25:53;;;;;;;50.65;24.98;;;;;;;8.69;100.00;97264.88;5135118;27;20096;-26
2023/11/25 02:28:20;;;;;;;50.40;24.50;;;;;;;8.47;100.00;97263.06;5135011;27;20023;-26
2023/11/25 02:30:46;;;;;;;56.15;27.90;;;;;;;8.65;100.00;97263.78;5135174;27;20610;-26
2023/11/25 02:33:14;;;;;;;51.38;25.75;;;;;;;8.74;100.00;97267.59;5135055;27;20079;-26
2023/11/25 02:35:40;;;;;;;47.80;24.02;;;;;;;8.56;100.00;97269.53;5134583;27;20080;-26
2023/11/25 02:38:05;;;;;;;49.47;25.63;;;;;;;8.71;100.00;97266.22;5134677;27;20098;-26
2023/11/25 02:40:32;;;;;;;46.22;24.38;;;;;;;8.86;99.78;97257.59;5135070;27;20145;-26
2023/11/25 02:42:57;;;;;;;48.00;24.42;;;;;;;8.68;98.93;97256.16;5134775;27;20079;-25
2023/11/25 02:45:23;;;;;;;46.17;25.08;;;;;;;8.55;100.00;97251.25;5134859;27;20093;-26
2023/11/25 02:47:50;;;;;;;48.72;25.10;;;;;;;8.42;100.00;97247.16;5134966;27;20024;-26
2023/11/25 02:50:17;;;;;;;50.50;24.60;;;;;;;8.40;100.00;97244.72;5134692;27;20102;-26
2023/11/25 02:52:43;;;;;;;52.80;26.27;;;;;;;8.17;100.00;97231.75;5134625;27;20034;-26
2023/11/25 02:55:12;;;;;;;51.03;25.27;;;;;;;8.59;100.00;97225.84;5134906;27;20051;-26
2023/11/25 02:57:43;;;;;;;48.75;24.80;;;;;;;8.53;100.00;97225.00;5118793;27;20024;-26
2023/11/25 03:00:16;;;;;;;50.47;24.48;;;;;;;8.55;99.36;97222.09;5114408;28;20035;-26
2023/11/25 03:02:41;;;;;;;51.55;26.23;;;;;;;8.42;100.00;97210.03;5133522;27;20095;-25
2023/11/25 03:05:08;;;;;;;50.92;25.48;;;;;;;8.64;99.96;97201.19;5134571;27;20019;-26
2023/11/25 03:07:35;;;;;;;53.72;26.50;;;;;;;8.52;98.61;97206.69;5134336;27;20023;-25
2023/11/25 03:10:01;;;;;;;50.50;25.30;;;;;;;8.30;100.00;97177.56;5134542;27;20447;-26
2023/11/25 03:12:27;;;;;;;47.95;24.83;;;;;;;8.45;100.00;97179.56;5134165;27;20058;-26
2023/11/25 03:14:52;;;;;;;44.53;24.17;;;;;;;8.45;100.00;97171.63;5133760;27;20107;-26
2023/11/25 03:17:18;;;;;;;48.55;24.95;;;;;;;8.46;100.00;97162.63;5133944;27;20531;-26
2023/11/25 03:19:45;;;;;;;49.65;25.15;;;;;;;8.45;100.00;97158.38;5133797;27;20098;-26
2023/11/25 03:22:10;;;;;;;47.90;24.70;;;;;;;8.37;99.69;97159.59;5133818;27;20431;-25
2023/11/25 03:24:35;;;;;;;49.35;25.17;;;;;;;8.33;100.00;97145.25;5133297;27;20023;-26
2023/11/25 03:27:02;;;;;;;50.20;25.90;;;;;;;8.28;100.00;97137.25;5134028;27;20033;-26
2023/11/25 03:29:27;;;;;;;49.05;25.52;;;;;;;8.33;100.00;97161.94;5134055;27;20046;-26
2023/11/25 03:31:53;;;;;;;47.22;24.98;;;;;;;8.35;100.00;97149.25;5133815;27;20451;-26
2023/11/25 03:34:18;;;;;;;50.50;26.30;;;;;;;8.37;100.00;97152.44;5134125;27;20078;-26
2023/11/25 03:36:44;;;;;;;48.53;25.63;;;;;;;8.19;100.00;97132.44;5133830;27;20455;-26
2023/11/25 03:39:09;;;;;;;50.45;25.13;;;;;;;8.36;100.00;97137.63;5133998;27;20041;-25
2023/11/25 03:41:36;;;;;;;50.17;25.60;;;;;;;8.43;100.00;97133.97;5133634;27;20031;-26
2023/11/25 03:44:01;;;;;;;51.17;25.73;;;;;;;8.46;99.88;97104.31;5133835;27;20173;-25
2023/11/25 03:46:27;;;;;;;53.00;26.52;;;;;;;8.47;98.91;97098.75;5133636;27;20106;-26
2023/11/25 03:48:53;;;;;;;55.17;27.02;;;;;;;8.46;100.00;97118.38;5133932;27;20114;-26
2023/11/25 03:51:19;;;;;;;55.63;27.55;;;;;;;8.84;99.40;97102.47;5133602;27;20657;-26
2023/11/25 03:53:45;;;;;;;52.72;26.02;;;;;;;8.44;99.22;97101.13;5133311;27;20019;-24
2023/11/25 03:56:13;;;;;;;49.95;25.63;;;;;;;8.50;99.65;97090.28;5133755;27;20111;-26
2023/11/25 03:58:39;;;;;;;49.22;25.35;;;;;;;8.22;99.71;97080.78;5133155;27;20042;-25
2023/11/25 04:01:04;;;;;;;52.05;26.38;;;;;;;8.14;100.00;97097.16;5133362;27;20050;-26
2023/11/25 04:03:30;;;;;;;54.08;26.42;;;;;;;8.14;100.00;97113.03;5133357;27;20030;-26
2023/11/25 04:05:57;;;;;;;50.30;24.90;;;;;;;8.19;100.00;97108.59;5133521;27;20019;-25
2023/11/25 04:08:23;;;;;;;51.22;25.83;;;;;;;8.23;100.00;97093.00;5133134;27;20046;-26
2023/11/25 04:10:49;;;;;;;51.55;25.75;;;;;;;8.16;100.00;97066.69;5133149;27;20023;-26
2023/11/25 04:13:15;;;;;;;51.08;25.13;;;;;;;8.36;100.00;97079.31;5133345;27;20019;-25
2023/11/25 04:15:40;;;;;;;54.35;26.42;;;;;;;8.25;100.00;97082.13;5132958;27;20031;-26
2023/11/25 04:18:06;;;;;;;49.75;25.23;;;;;;;8.19;100.00;97078.66;5132996;27;20095;-26
2023/11/25 04:20:33;;;;;;;46.50;24.27;;;;;;;8.41;100.00;97086.50;5133201;27;20018;-25
2023/11/25 04:23:05;;;;;;;55.20;25.40;;;;;;;8.51;100.00;97065.41;5133245;27;20024;-27
2023/11/25 04:25:31;;;;;;;50.90;25.48;;;;;;;8.60;99.94;97055.91;5132940;27;20110;-25
2023/11/25 04:27:56;;;;;;;52.97;25.40;;;;;;;8.50;100.00;97077.03;5132341;27;20146;-26
2023/11/25 04:30:22;;;;;;;49.50;24.17;;;;;;;8.44;100.00;97070.13;5132847;27;20087;-26
2023/11/25 04:32:48;;;;;;;50.10;25.42;;;;;;;8.49;100.00;97070.16;5132800;27;20019;-26
2023/11/25 04:35:15;;;;;;;49.92;25.02;;;;;;;8.46;100.00;97091.06;5132350;27;20134;-26
2023/11/25 04:37:43;;;;;;;47.88;25.20;;;;;;;8.36;100.00;97089.13;5132113;27;20041;-37
2023/11/25 04:40:11;;;;;;;49.75;25.55;;;;;;;8.64;100.00;97072.09;5132558;27;20019;-39
2023/11/25 04:42:37;;;;;;;57.20;26.85;;;;;;;8.55;99.54;97017.97;5132115;27;20027;-40
2023/11/25 04:45:03;;;;;;;55.90;27.17;;;;;;;8.43;100.00;97065.06;5132302;27;20021;-38
2023/11/25 04:47:28;;;;;;;54.95;27.08;;;;;;;8.10;100.00;97093.41;5132525;27;20386;-40
2023/11/25 04:49:54;;;;;;;52.38;26.17;;;;;;;8.38;100.00;97089.66;5132394;27;20023;-40
2023/11/25 04:52:20;;;;;;;54.90;27.15;;;;;;;8.52;100.00;97056.38;5132459;27;20102;-40
2023/11/25 04:54:46;;;;;;;58.50;27.33;;;;;;;8.39;100.00;97056.78;5132338;27;20051;-37
2023/11/25 04:57:12;;;;;;;54.22;27.33;;;;;;;8.56;100.00;97076.03;5132478;27;20020;-37
2023/11/25 04:59:38;;;;;;;57.33;27.98;;;;;;;8.34;100.00;97077.94;5132128;27;20064;-37
2023/11/25 05:02:05;;;;;;;53.65;27.77;;;;;;;8.36;100.00;97052.03;5132345;27;20474;-39
2023/11/25 05:04:30;;;;;;;59.13;26.48;;;;;;;8.55;100.00;97049.78;5132408;27;20055;-39
2023/11/25 05:06:56;;;;;;;50.22;26.88;;;;;;;8.54;100.00;97056.91;5132389;27;20404;-39
2023/11/25 05:09:25;;;;;;;56.80;27.70;;;;;;;8.49;100.00;97077.28;5132500;27;20019;-39
2023/11/25 05:11:51;;;;;;;57.30;26.65;;;;;;;8.26;100.00;97062.53;5131740;27;20030;-39
2023/11/25 05:14:17;;;;;;;55.85;27.23;;;;;;;8.63;100.00;97024.66;5132341;27;20135;-40
2023/11/25 05:16:42;;;;;;;59.08;27.73;;;;;;;8.53;100.00;97047.38;5132266;27;20576;-40
2023/11/25 05:19:08;;;;;;;56.05;27.77;;;;;;;8.49;100.00;97072.81;5133066;27;20075;-40
2023/11/25 05:21:33;;;;;;;60.13;28.52;;;;;;;8.32;100.00;97070.28;5132433;28;20414;-41
2023/11/25 05:23:59;;;;;;;51.38;26.95;;;;;;;8.43;100.00;97051.81;5132416;28;20495;-38
2023/11/25 05:26:24;;;;;;;61.28;27.50;;;;;;;8.31;100.00;97044.81;5132537;28;20015;-37
2023/11/25 05:28:49;;;;;;;52.90;28.05;;;;;;;8.42;100.00;97040.44;5132600;27;20471;-40
2023/11/25 05:31:15;;;;;;;53.20;26.48;;;;;;;9.07;100.00;97050.84;5129816;27;20037;-40
2023/11/25 05:33:40;;;;;;;54.17;27.08;;;;;;;9.06;99.92;97067.81;5125913;28;20073;-41
2023/11/25 05:36:06;;;;;;;49.63;25.00;;;;;;;8.95;98.93;97059.03;5115937;27;20023;-41
2023/11/25 05:38:34;;;;;;;51.80;26.23;;;;;;;8.74;98.99;97031.59;5151157;27;20019;-40
2023/11/25 05:40:59;;;;;;;50.92;25.20;;;;;;;8.70;98.92;97038.44;5144626;27;20031;-39
2023/11/25 05:43:25;;;;;;;49.33;25.08;;;;;;;8.65;99.16;97043.75;5132230;28;20027;-41
2023/11/25 05:45:50;;;;;;;46.75;25.30;;;;;;;8.57;100.00;97040.53;5132319;28;20061;-42
2023/11/25 05:48:17;;;;;;;47.58;25.08;;;;;;;8.55;100.00;97057.75;5134910;27;20027;-40
2023/11/25 05:50:42;;;;;;;47.78;23.80;;;;;;;8.76;98.58;97054.16;5136331;27;20050;-38
2023/11/25 05:53:08;;;;;;;48.03;25.15;;;;;;;8.70;98.72;97027.84;5136368;27;20027;-42
2023/11/25 05:55:33;;;;;;;47.22;25.30;;;;;;;8.70;97.02;97027.84;5141015;27;20096;-41
2023/11/25 05:57:59;;;;;;;49.22;24.45;;;;;;;8.65;98.59;97033.16;5135513;27;20023;-40
2023/11/25 06:00:24;;;;;;;48.90;24.98;;;;;;;8.61;99.54;97031.00;5135688;27;20042;-40
2023/11/25 06:02:51;;;;;;;50.08;24.35;;;;;;;8.59;98.58;97030.47;5135553;27;20023;-40
2023/11/25 06:05:17;;;;;;;47.53;25.77;;;;;;;8.44;99.28;97022.41;5127392;27;20023;-40
2023/11/25 06:07:43;;;;;;;48.72;25.88;;;;;;;8.55;99.03;97007.38;5135232;27;20459;-41
2023/11/25 06:10:09;;;;;;;44.65;23.42;;;;;;;8.37;99.15;97025.25;5135192;27;20030;-41
2023/11/25 06:12:35;;;;;;;45.75;23.98;;;;;;;8.64;100.00;97028.88;5134787;27;20098;-39
2023/11/25 06:15:01;;;;;;;43.28;23.48;;;;;;;8.69;99.85;97036.88;5134916;27;20398;-39
2023/11/25 06:17:26;;;;;;;49.08;25.70;;;;;;;8.94;100.00;97031.69;5134652;27;20019;-40
2023/11/25 06:19:53;;;;;;;47.05;23.55;;;;;;;8.79;97.99;97015.69;5116159;27;20023;-29
2023/11/25 06:22:20;;;;;;;48.63;24.88;;;;;;;8.41;100.00;97022.88;5135125;27;20023;-28
2023/11/25 06:24:46;;;;;;;52.00;24.85;;;;;;;8.53;98.86;97020.06;5135361;27;20030;-26
2023/11/25 06:27:11;;;;;;;50.97;25.95;;;;;;;8.41;99.30;97022.88;5135190;27;20019;-27
2023/11/25 06:29:39;;;;;;;47.35;23.92;;;;;;;8.39;99.63;97027.66;5129644;27;20057;-27
2023/11/25 06:32:05;;;;;;;48.22;23.88;;;;;;;8.35;99.19;97037.16;5115574;27;20019;-27
2023/11/25 06:34:30;;;;;;;48.53;22.92;;;;;;;8.28;100.00;97028.63;5131453;27;20030;-27
2023/11/25 06:36:56;;;;;;;45.70;22.48;;;;;;;7.97;100.00;97023.09;5134854;27;20390;-27
2023/11/25 06:39:23;;;;;;;47.38;22.35;;;;;;;8.13;100.00;97019.53;5135000;27;20026;-27
2023/11/25 06:41:49;;;;;;;49.28;22.48;;;;;;;8.06;100.00;97031.41;5134187;27;20019;-26
2023/11/25 06:44:16;;;;;;;53.50;25.05;;;;;;;8.20;100.00;97028.03;5134564;27;20027;-26
2023/11/25 06:46:42;;;;;;;48.88;23.27;;;;;;;7.99;100.00;97027.09;5134396;27;20084;-25
2023/11/25 06:49:07;;;;;;;49.90;24.55;;;;;;;8.21;100.00;97055.34;5134376;27;20031;-27
2023/11/25 06:51:33;;;;;;;54.58;25.42;;;;;;;8.34;100.00;97051.44;5133827;27;20051;-27
2023/11/25 06:53:58;;;;;;;50.10;24.00;;;;;;;8.44;100.00;97040.19;5108003;28;20048;-29
2023/11/25 06:56:23;;;;;;;56.50;25.85;;;;;;;8.47;100.00;97034.34;5092190;28;20446;-26
2023/11/25 06:58:49;;;;;;;50.10;24.55;;;;;;;8.40;100.00;97042.50;5092610;28;20373;-27
2023/11/25 07:01:21;;;;;;;55.03;23.88;;;;;;;8.43;100.00;97038.56;5093366;28;20143;-27
2023/11/25 07:03:48;;;;;;;56.80;25.77;;;;;;;8.32;100.00;97037.66;5093435;28;20111;-28
2023/11/25 07:06:17;;;;;;;55.80;25.23;;;;;;;8.54;100.00;97041.03;5093446;28;20132;-27
2023/11/25 07:08:43;;;;;;;56.83;25.15;;;;;;;8.65;100.00;97041.09;5092676;28;20023;-26
2023/11/25 07:11:10;;;;;;;61.90;25.65;;;;;;;8.73;100.00;97040.59;5092212;28;20103;-27
2023/11/25 07:13:36;;;;;;;61.08;26.48;;;;;;;8.67;100.00;97036.34;5092265;28;20028;-27
2023/11/25 07:16:04;;;;;;;58.20;25.98;;;;;;;8.68;100.00;97032.63;5092495;28;20073;-27
2023/11/25 07:18:32;;;;;;;61.33;25.48;;;;;;;8.78;100.00;97038.78;5092377;28;20028;-27
2023/11/25 07:20:58;;;;;;;60.80;26.15;;;;;;;8.88;100.00;97040.69;5092598;28;20059;-28
2023/11/25 07:23:23;;;;;;;57.97;25.48;;;;;;;8.82;100.00;97044.38;5092191;28;20043;-26
2023/11/25 07:25:49;;;;;;;58.97;25.10;;;;;;;8.94;100.00;97042.28;5092994;28;20024;-30
2023/11/25 07:28:15;;;;;;;64.85;25.58;;;;;;;8.97;100.00;97041.78;5093064;28;20066;-27
2023/11/25 07:30:44;;;;;;;62.08;26.35;;;;;;;8.88;100.00;97045.97;5092925;28;20076;-28
2023/11/25 07:33:10;;;;;;;53.97;24.93;;;;;;;9.05;100.00;97052.97;5093095;28;20020;-27
2023/11/25 07:35:39;;;;;;;62.90;25.67;;;;;;;9.14;100.00;97059.38;5092922;28;20258;-27
2023/11/25 07:38:05;;;;;;;53.35;24.67;;;;;;;9.19;100.00;97033.66;5092843;28;20027;-26
2023/11/25 07:40:31;;;;;;;53.97;23.48;;;;;;;9.25;100.00;97045.06;5092332;28;20032;-27
2023/11/25 07:42:56;;;;;;;50.53;23.85;;;;;;;9.48;100.00;97046.47;5092549;28;20024;-26
2023/11/25 07:45:21;;;;;;;50.45;23.15;;;;;;;9.43;100.00;97046.47;5092722;28;20098;-26
2023/11/25 07:47:47;;;;;;;50.97;23.83;;;;;;;9.45;100.00;97036.38;5092669;28;20016;-27
2023/11/25 07:50:13;;;;;;;49.85;21.92;;;;;;;9.51;99.45;97048.59;5092696;28;20445;-26
2023/11/25 07:52:39;;;;;;;52.15;23.58;;;;;;;9.78;100.00;97052.88;5092447;28;20047;-27
2023/11/25 07:55:06;;;;;;;48.15;22.95;;;;;;;10.29;98.91;97052.13;5119249;27;20463;-28
2023/11/25 07:57:32;;;;;;;50.13;24.27;;;;;;;10.53;97.24;97055.84;5133122;27;20019;-27
2023/11/25 07:59:57;;;;;;;48.08;22.85;;;;;;;10.79;96.74;97053.13;5132959;27;20067;-26
2023/11/25 08:02:23;;;;;;;46.25;22.35;;;;;;;10.78;95.66;97051.53;5133214;27;20034;-27
2023/11/25 08:04:48;;;;;;;68.10;35.35;;;;;;;11.66;100.00;97060.75;5133499;27;20020;-26
2023/11/25 08:07:14;;;;;;;54.65;27.75;;;;;;;12.28;97.79;97063.00;5118561;27;20555;-26
2023/11/25 08:09:40;;;;;;;46.85;25.15;;;;;;;13.07;93.99;97058.22;5112146;28;20027;-27
2023/11/25 08:12:06;;;;;;;32.83;19.00;;;;;;;12.63;88.67;97061.09;5112146;28;20023;-27
2023/11/25 08:14:32;;;;;;;33.85;17.77;;;;;;;12.65;89.55;97069.63;5112396;28;20038;-27
2023/11/25 08:16:58;;;;;;;29.52;17.27;;;;;;;12.74;87.03;97070.59;5111701;28;20069;-27
2023/11/25 08:19:24;;;;;;;33.22;17.42;;;;;;;13.13;84.79;97064.28;5111908;28;20015;-26
2023/11/25 08:21:49;;;;;;;32.13;17.60;;;;;;;12.88;84.76;97084.84;5111644;28;20027;-26
2023/11/25 08:24:17;;;;;;;34.90;17.90;;;;;;;12.81;84.94;97086.25;5112261;28;20552;-27
2023/11/25 08:26:43;;;;;;;29.75;17.02;;;;;;;12.47;86.62;97093.25;5112220;28;20019;-26
2023/11/25 08:29:09;;;;;;;29.70;16.63;;;;;;;12.62;86.56;97095.00;5121720;27;20430;-28
2023/11/25 08:31:34;;;;;;;30.77;17.23;;;;;;;11.96;89.52;97093.66;5132748;27;20015;-27
2023/11/25 08:34:09;;;;;;;26.40;15.18;;;;;;;11.91;90.63;97088.34;5132755;27;20022;-27
2023/11/25 08:36:59;;;;;;;23.83;14.43;;;;;;;11.74;90.82;97092.13;5132377;27;20124;-27
2023/11/25 08:39:27;;;;;;;25.67;13.55;;;;;;;11.49;93.25;97077.09;5123606;27;20034;-27
2023/11/25 08:41:53;;;;;;;23.98;12.75;;;;;;;11.03;95.52;97087.13;5132175;27;20125;-26
2023/11/25 08:44:20;;;;;;;24.52;12.45;;;;;;;11.04;95.12;97091.38;5132428;27;20104;-26
2023/11/25 08:46:45;;;;;;;21.40;12.13;;;;;;;11.15;94.93;97088.41;5132384;27;20027;-28
2023/11/25 08:49:13;;;;;;;20.45;11.50;;;;;;;10.97;94.22;97097.00;5131821;27;20035;-27
2023/11/25 08:51:45;;;;;;;19.35;11.48;;;;;;;10.92;95.93;97092.47;5131114;27;20023;-27
2023/11/25 08:54:12;;;;;;;15.55;10.00;;;;;;;10.87;94.01;97097.00;5104169;28;20361;-29
2023/11/25 08:56:40;;;;;;;8.75;5.20;;;;;;;10.36;92.04;97092.56;5091754;28;20055;-26
2023/11/25 08:59:07;;;;;;;4.82;3.30;;;;;;;10.26;90.83;97100.47;5092044;28;20053;-28
2023/11/25 09:01:39;;;;;;;4.95;2.90;;;;;;;10.20;88.94;97101.56;5090927;28;20035;-28
2023/11/25 09:04:08;;;;;;;3.25;2.03;;;;;;;10.18;85.97;97091.19;5088844;28;20503;-28
2023/11/25 09:06:37;;;;;;;1.77;1.30;;;;;;;9.95;86.42;97106.56;5090291;28;20401;-27
2023/11/25 09:09:07;;;;;;;1.87;1.33;;;;;;;9.92;86.57;97106.31;5090304;28;20093;-28
2023/11/25 09:11:33;;;;;;;2.83;1.30;;;;;;;9.54;89.10;97111.78;5090573;28;20102;-27
2023/11/25 09:13:58;;;;;;;3.78;1.50;;;;;;;9.61;89.93;97108.88;5089238;28;20600;-28
2023/11/25 09:16:25;;;;;;;2.95;1.70;;;;;;;9.72;88.47;97104.41;5090521;28;20032;-27
2023/11/25 09:18:50;;;;;;;4.40;1.90;;;;;;;9.91;86.67;97124.09;5090274;28;20034;-28
2023/11/25 09:21:16;;;;;;;3.75;2.00;;;;;;;9.53;88.17;97110.19;5090074;28;20032;-29
2023/11/25 09:23:43;;;;;;;3.53;1.98;;;;;;;9.77;86.92;97110.53;5089658;28;20492;-28
2023/11/25 09:26:08;;;;;;;3.95;2.20;;;;;;;9.76;87.86;97108.91;5090584;28;20032;-28
2023/11/25 09:28:35;;;;;;;6.95;4.00;;;;;;;9.85;87.97;97105.78;5088991;28;20110;-27
2023/11/25 09:31:00;;;;;;;3.22;1.80;;;;;;;9.88;88.15;97107.88;5090301;28;20115;-27
2023/11/25 09:33:26;;;;;;;3.05;2.03;;;;;;;9.72;87.41;97107.84;5090119;28;20111;-28
2023/11/25 09:35:52;;;;;;;2.95;1.85;;;;;;;9.49;88.68;97109.13;5090379;28;20103;-27
2023/11/25 09:38:17;;;;;;;5.03;2.13;;;;;;;9.55;87.67;97105.41;5090440;28;20438;-29
2023/11/25 09:40:43;;;;;;;3.78;2.33;;;;;;;9.47;88.08;97110.44;5090244;28;20027;-27
2023/11/25 09:43:09;;;;;;;2.53;1.55;;;;;;;9.12;88.17;97098.59;5090089;28;20031;-29
2023/11/25 09:45:35;;;;;;;2.85;1.17;;;;;;;9.00;87.11;97104.13;5090113;28;20108;-30
2023/11/25 09:48:01;;;;;;;1.65;1.30;;;;;;;8.95;86.65;97102.25;5090106;28;20070;-28
2023/11/25 09:50:27;;;;;;;1.52;1.00;;;;;;;8.92;86.89;97096.66;5090283;28;20062;-27
2023/11/25 09:52:53;;;;;;;1.73;1.13;;;;;;;8.87;86.56;97091.31;5089958;28;20024;-26
2023/11/25 09:55:25;;;;;;;2.30;1.42;;;;;;;8.95;87.49;97102.25;5120429;28;20157;-26
2023/11/25 09:57:56;;;;;;;4.90;2.20;;;;;;;9.25;85.63;97079.56;5131844;28;20038;-26
2023/11/25 10:00:25;;;;;;;3.40;1.50;;;;;;;9.10;86.27;97085.63;5131999;28;20440;-26
2023/11/25 10:02:52;;;;;;;2.65;1.35;;;;;;;9.07;87.39;97077.38;5131621;28;20023;-28
2023/11/25 10:05:17;;;;;;;3.80;1.70;;;;;;;8.87;89.07;97086.84;5132071;28;20008;-27
2023/11/25 10:07:43;;;;;;;2.40;1.80;;;;;;;9.25;87.21;97082.22;5131925;28;20061;-27
2023/11/25 10:10:10;;;;;;;1.98;1.40;;;;;;;8.85;88.00;97070.34;5131829;27;20031;-27
2023/11/25 10:12:40;;;;;;;3.45;1.30;;;;;;;9.09;87.99;97069.94;5131819;28;20102;-27
2023/11/25 10:15:07;;;;;;;2.30;1.60;;;;;;;8.66;89.93;97075.28;5131676;28;20040;-26
2023/11/25 10:17:32;;;;;;;2.50;1.65;;;;;;;8.93;89.42;97066.41;5131992;28;20463;-27
2023/11/25 10:20:18;;;;;;;3.85;1.77;;;;;;;8.85;90.06;97064.25;5131456;28;20632;-26
2023/11/25 10:22:58;;;;;;;1.88;1.50;;;;;;;8.59;92.29;97070.22;5131599;28;20126;-27
2023/11/25 10:25:26;;;;;;;4.63;2.15;;;;;;;8.72;90.98;97068.97;5131669;28;20030;-26
2023/11/25 10:27:53;;;;;;;3.63;1.90;;;;;;;8.95;89.89;97072.28;5131148;28;20494;-28
2023/11/25 10:30:20;;;;;;;3.65;2.17;;;;;;;8.91;90.24;97052.63;5131680;28;20034;-27
2023/11/25 10:32:49;;;;;;;2.42;1.77;;;;;;;8.94;90.36;97052.09;5131693;27;20023;-27
2023/11/25 10:35:14;;;;;;;3.08;1.88;;;;;;;9.22;89.15;97064.16;5135187;27;20027;-28
2023/11/25 10:37:40;;;;;;;3.55;1.63;;;;;;;9.12;89.50;97062.28;5116290;27;20091;-25
2023/11/25 10:40:10;;;;;;;2.00;1.40;;;;;;;9.05;89.75;97064.38;5135003;27;20031;-28
2023/11/25 10:42:44;;;;;;;3.38;1.42;;;;;;;8.83;89.52;97055.75;5135646;27;20474;-28
2023/11/25 10:45:17;;;;;;;3.13;1.73;;;;;;;9.10;88.49;97047.66;5135357;27;20019;-26
2023/11/25 10:47:43;;;;;;;2.67;1.33;;;;;;;8.88;89.40;97069.84;5135063;27;20027;-28
2023/11/25 10:50:09;;;;;;;1.70;1.17;;;;;;;8.53;90.65;97047.38;5135052;27;20027;-27
2023/11/25 10:52:38;;;;;;;2.38;1.40;;;;;;;8.89;89.34;97050.25;5134767;27;20071;-28
2023/11/25 10:55:06;;;;;;;2.50;1.37;;;;;;;8.86;89.18;97040.13;5134719;27;20120;-28
2023/11/25 10:57:32;;;;;;;2.35;1.40;;;;;;;9.14;87.57;97051.41;5135257;27;20031;-27
2023/11/25 10:59:58;;;;;;;3.75;1.90;;;;;;;9.16;88.09;97036.81;5134530;27;20023;-26
2023/11/25 11:02:36;;;;;;;2.28;1.48;;;;;;;9.02;88.00;97046.31;5134463;27;20031;-28
2023/11/25 11:05:17;;;;;;;4.50;1.83;;;;;;;9.29;85.48;97037.38;5133070;27;20038;-27
2023/11/25 11:07:52;;;;;;;2.55;1.70;;;;;;;8.62;87.50;97037.09;5129865;27;20554;-29
2023/11/25 11:10:29;;;;;;;3.58;1.90;;;;;;;8.69;87.73;97039.53;5130266;27;20072;-28
2023/11/25 11:13:02;;;;;;;2.28;1.75;;;;;;;8.23;90.08;97048.75;5134482;27;20023;-27
2023/11/25 11:15:30;;;;;;;2.80;1.83;;;;;;;8.14;88.55;97050.25;5134156;27;20067;-27
2023/11/25 11:18:22;;;;;;;2.13;1.38;;;;;;;7.47;89.26;97042.78;5134303;27;20023;-28
2023/11/25 11:20:51;;;;;;;3.10;1.35;;;;;;;7.79;92.09;97033.03;5116406;27;20035;-26
2023/11/25 11:23:22;;;;;;;3.75;1.60;;;;;;;7.66;91.91;97038.72;5133894;27;20111;-27